createdAt,value
2018-02-21T00:01:35.193Z,12.57
2018-02-21T00:04:06.322Z,12.17
2018-02-21T00:06:38.080Z,12.20
2018-02-21T00:09:13.975Z,12.77
2018-02-21T00:11:42.949Z,13.63
2018-02-21T00:14:19.133Z,12.50
2018-02-21T00:16:50.416Z,12.33
2018-02-21T00:19:25.993Z,11.70
2018-02-21T00:22:02.595Z,14.93
2018-02-21T00:24:35.239Z,16.23
2018-02-21T00:27:08.773Z,11.70
2018-02-21T00:29:43.475Z,17.63
2018-02-21T00:32:12.747Z,15.10
2018-02-21T00:34:46.151Z,15.17
2018-02-21T00:37:16.304Z,12.70
2018-02-21T00:39:47.938Z,14.83
2018-02-21T00:42:17.469Z,14.77
2018-02-21T00:44:48.800Z,15.50
2018-02-21T00:47:17.317Z,14.17
2018-02-21T00:49:47.510Z,14.73
2018-02-21T00:52:20.269Z,14.70
2018-02-21T00:54:53.831Z,13.90
2018-02-21T00:57:29.171Z,13.17
2018-02-21T01:00:04.040Z,15.37
2018-02-21T01:02:35.623Z,15.50
2018-02-21T01:05:26.301Z,13.70
2018-02-21T01:07:55.617Z,16.80
2018-02-21T01:10:23.885Z,15.50
2018-02-21T01:12:56.205Z,14.97
2018-02-21T01:15:31.114Z,16.30
2018-02-21T01:18:07.903Z,16.00
2018-02-21T01:20:39.507Z,15.17
2018-02-21T01:23:14.698Z,16.37
2018-02-21T01:25:43.753Z,13.40
2018-02-21T01:28:12.478Z,12.47
2018-02-21T01:30:44.190Z,16.53
2018-02-21T01:33:13.004Z,15.23
2018-02-21T01:35:43.209Z,13.90
2018-02-21T01:38:16.442Z,15.10
2018-02-21T01:40:49.628Z,15.33
2018-02-21T01:43:24.065Z,16.17
2018-02-21T01:46:02.389Z,13.90
2018-02-21T01:48:33.693Z,13.83
2018-02-21T01:51:15.308Z,15.07
2018-02-21T01:53:44.369Z,15.47
2018-02-21T01:56:12.873Z,14.10
2018-02-21T01:58:41.440Z,14.23
2018-02-21T02:01:10.519Z,13.97
2018-02-21T02:03:39.879Z,12.93
2018-02-21T02:06:08.854Z,16.20
2018-02-21T02:08:40.751Z,14.73
2018-02-21T02:11:09.777Z,17.03
2018-02-21T02:13:38.400Z,14.63
2018-02-21T02:16:06.698Z,17.33
2018-02-21T02:18:36.889Z,15.07
2018-02-21T02:21:08.809Z,18.43
2018-02-21T02:23:39.169Z,18.93
2018-02-21T02:26:13.600Z,14.50
2018-02-21T02:28:44.590Z,19.83
2018-02-21T02:31:13.242Z,17.97
2018-02-21T02:33:41.557Z,17.20
2018-02-21T02:36:09.889Z,17.53
2018-02-21T02:38:40.137Z,18.47
2018-02-21T02:41:09.917Z,19.33
2018-02-21T02:43:38.217Z,20.73
2018-02-21T02:46:08.900Z,19.50
2018-02-21T02:48:37.511Z,20.20
2018-02-21T02:51:05.940Z,22.40
2018-02-21T02:53:36.590Z,26.10
2018-02-21T02:56:10.106Z,27.03
2018-02-21T02:58:44.681Z,30.37
2018-02-21T03:01:20.496Z,28.07
2018-02-21T03:03:55.286Z,29.30
2018-02-21T03:06:29.432Z,30.73
2018-02-21T03:09:01.289Z,29.07
2018-02-21T03:11:30.547Z,31.47
2018-02-21T03:13:59.973Z,26.13
2018-02-21T03:16:28.251Z,29.37
2018-02-21T03:18:57.286Z,31.90
2018-02-21T03:21:27.897Z,30.87
2018-02-21T03:24:02.368Z,30.87
2018-02-21T03:26:36.710Z,32.00
2018-02-21T03:29:06.846Z,30.03
2018-02-21T03:31:35.139Z,31.50
2018-02-21T03:34:03.504Z,31.93
2018-02-21T03:36:33.717Z,30.77
2018-02-21T03:39:02.439Z,33.07
2018-02-21T03:41:34.469Z,31.40
2018-02-21T03:44:06.094Z,32.23
2018-02-21T03:46:34.375Z,35.53
2018-02-21T03:49:02.685Z,30.87
2018-02-21T03:51:52.257Z,36.17
2018-02-21T03:54:21.024Z,34.00
2018-02-21T03:56:49.328Z,31.67
2018-02-21T03:59:21.086Z,38.27
2018-02-21T04:01:50.190Z,32.93
2018-02-21T04:04:18.719Z,34.07
2018-02-21T04:06:49.041Z,36.73
2018-02-21T04:09:19.000Z,34.43
2018-02-21T04:11:55.948Z,35.47
2018-02-21T04:14:26.237Z,38.03
2018-02-21T04:16:56.283Z,38.27
2018-02-21T04:19:26.167Z,40.00
2018-02-21T04:22:06.955Z,35.87
2018-02-21T04:24:40.609Z,40.30
2018-02-21T04:27:15.099Z,40.63
2018-02-21T04:29:43.901Z,45.87
2018-02-21T04:32:12.420Z,45.53
2018-02-21T04:34:40.730Z,37.60
2018-02-21T04:37:18.408Z,40.87
2018-02-21T04:39:46.725Z,41.90
2018-02-21T04:42:15.055Z,41.67
2018-02-21T04:44:43.370Z,41.30
2018-02-21T04:47:13.226Z,41.40
2018-02-21T04:49:46.279Z,41.50
2018-02-21T04:52:32.805Z,42.80
2018-02-21T04:55:01.726Z,40.83
2018-02-21T04:57:31.764Z,43.60
2018-02-21T05:00:08.629Z,45.60
2018-02-21T05:02:37.176Z,47.10
2018-02-21T05:05:07.940Z,46.03
2018-02-21T05:07:37.861Z,42.23
2018-02-21T05:10:10.990Z,43.27
2018-02-21T05:12:45.013Z,42.57
2018-02-21T05:15:19.975Z,43.50
2018-02-21T05:17:48.974Z,43.27
2018-02-21T05:20:22.760Z,42.97
2018-02-21T05:23:08.178Z,49.13
2018-02-21T05:25:37.332Z,41.43
2018-02-21T05:28:07.689Z,46.07
2018-02-21T05:30:36.780Z,45.93
2018-02-21T05:33:06.619Z,42.13
2018-02-21T05:35:35.486Z,51.07
2018-02-21T05:38:18.506Z,46.27
2018-02-21T05:40:48.487Z,48.90
2018-02-21T05:43:16.759Z,45.63
2018-02-21T05:45:45.489Z,45.73
2018-02-21T05:48:18.757Z,48.20
2018-02-21T05:50:54.246Z,55.90
2018-02-21T05:53:40.033Z,56.30
2018-02-21T05:56:08.393Z,59.07
2018-02-21T05:58:37.102Z,54.60
2018-02-21T06:01:11.913Z,53.00
2018-02-21T06:03:45.527Z,52.87
2018-02-21T06:06:18.771Z,54.37
2018-02-21T06:09:00.082Z,53.70
2018-02-21T06:11:32.859Z,48.40
2018-02-21T06:14:03.116Z,53.10
2018-02-21T06:16:39.685Z,57.50
2018-02-21T06:19:14.574Z,58.63
2018-02-21T06:21:47.547Z,58.30
2018-02-21T06:24:20.362Z,53.20
2018-02-21T06:26:54.842Z,44.13
2018-02-21T06:29:27.451Z,63.40
2018-02-21T06:31:57.667Z,58.17
2018-02-21T06:34:27.714Z,57.87
2018-02-21T06:36:56.379Z,53.97
2018-02-21T06:39:27.718Z,52.93
2018-02-21T06:41:56.508Z,58.33
2018-02-21T06:44:26.530Z,50.77
2018-02-21T06:47:01.493Z,61.23
2018-02-21T06:49:34.178Z,47.13
2018-02-21T06:52:07.820Z,53.33
2018-02-21T06:54:50.169Z,58.50
2018-02-21T06:57:18.603Z,53.93
2018-02-21T06:59:52.563Z,54.60
2018-02-21T07:02:34.578Z,48.97
2018-02-21T07:05:03.793Z,53.37
2018-02-21T07:07:35.208Z,56.93
2018-02-21T07:10:12.336Z,63.60
2018-02-21T07:12:45.340Z,57.33
2018-02-21T07:15:13.676Z,61.17
2018-02-21T07:17:43.886Z,59.30
2018-02-21T07:20:12.620Z,56.23
2018-02-21T07:22:40.944Z,56.77
2018-02-21T07:25:47.285Z,67.10
2018-02-21T07:28:15.594Z,58.00
2018-02-21T07:30:50.152Z,62.70
2018-02-21T07:33:22.863Z,55.97
2018-02-21T07:35:55.008Z,57.60
2018-02-21T07:38:23.291Z,59.93
2018-02-21T07:40:52.771Z,53.03
2018-02-21T07:43:21.578Z,61.87
2018-02-21T07:45:51.123Z,65.93
2018-02-21T07:48:20.706Z,54.23
2018-02-21T07:50:52.706Z,57.90
2018-02-21T07:53:24.142Z,59.73
2018-02-21T07:56:44.217Z,70.90
2018-02-21T07:59:13.062Z,64.43
2018-02-21T08:01:41.912Z,64.77
2018-02-21T08:04:10.522Z,70.00
2018-02-21T08:06:38.794Z,68.67
2018-02-21T08:09:07.075Z,78.77
2018-02-21T08:11:36.466Z,89.00
2018-02-21T08:14:06.735Z,87.87
2018-02-21T08:16:37.730Z,95.30
2018-02-21T08:19:07.800Z,91.40
2018-02-21T08:21:37.337Z,83.10
2018-02-21T08:24:08.551Z,96.63
2018-02-21T08:26:37.666Z,97.30
2018-02-21T08:29:05.964Z,92.70
2018-02-21T08:31:39.092Z,94.40
2018-02-21T08:34:08.812Z,86.23
2018-02-21T08:36:49.590Z,88.67
2018-02-21T08:39:21.997Z,85.00
2018-02-21T08:41:53.858Z,84.93
2018-02-21T08:44:24.386Z,84.27
2018-02-21T08:46:53.994Z,85.67
2018-02-21T08:49:23.229Z,88.33
2018-02-21T08:51:52.060Z,83.90
2018-02-21T08:54:22.841Z,85.27
2018-02-21T08:57:29.379Z,84.60
2018-02-21T09:00:01.769Z,87.13
2018-02-21T09:02:30.428Z,87.00
2018-02-21T09:05:02.232Z,78.93
2018-02-21T09:07:30.654Z,80.27
2018-02-21T09:10:02.659Z,91.70
2018-02-21T09:12:31.860Z,80.63
2018-02-21T09:15:02.585Z,72.67
2018-02-21T09:17:34.769Z,78.10
2018-02-21T09:20:11.564Z,79.57
2018-02-21T09:22:46.209Z,69.90
2018-02-21T09:25:19.319Z,78.10
2018-02-21T09:28:04.540Z,72.77
2018-02-21T09:30:32.873Z,70.40
2018-02-21T09:33:07.113Z,81.37
2018-02-21T09:35:40.998Z,74.13
2018-02-21T09:38:10.892Z,85.87
2018-02-21T09:40:39.168Z,76.20
2018-02-21T09:43:07.941Z,82.37
2018-02-21T09:45:36.228Z,82.47
2018-02-21T09:48:04.815Z,68.80
2018-02-21T09:50:34.892Z,71.40
2018-02-21T09:53:10.996Z,71.27
2018-02-21T09:55:46.932Z,78.30
2018-02-21T09:58:20.480Z,74.10
2018-02-21T10:00:56.336Z,72.20
2018-02-21T10:03:32.173Z,70.47
2018-02-21T10:06:00.768Z,75.27
2018-02-21T10:08:29.833Z,77.27
2018-02-21T10:10:58.646Z,84.70
2018-02-21T10:13:27.536Z,72.50
2018-02-21T10:15:55.820Z,74.07
2018-02-21T10:18:27.828Z,64.67
2018-02-21T10:21:00.877Z,71.83
2018-02-21T10:23:33.479Z,66.53
2018-02-21T10:26:01.758Z,63.67
2018-02-21T10:28:30.360Z,61.43
2018-02-21T10:30:59.237Z,60.27
2018-02-21T10:33:30.242Z,64.00
2018-02-21T10:36:00.219Z,60.00
2018-02-21T10:38:30.472Z,60.87
2018-02-21T10:40:58.902Z,64.80
2018-02-21T10:43:27.620Z,63.07
2018-02-21T10:45:55.889Z,59.97
2018-02-21T10:48:24.169Z,67.70
2018-02-21T10:50:56.939Z,65.40
2018-02-21T10:53:25.260Z,61.43
2018-02-21T10:55:53.553Z,59.93
2018-02-21T10:58:22.987Z,57.57
2018-02-21T11:00:57.915Z,58.57
2018-02-21T11:03:26.432Z,58.30
2018-02-21T11:05:57.667Z,67.00
2018-02-21T11:08:29.471Z,59.43
2018-02-21T11:11:02.394Z,56.70
2018-02-21T11:14:12.950Z,61.97
2018-02-21T11:16:48.522Z,69.70
2018-02-21T11:19:21.152Z,56.97
2018-02-21T11:21:50.645Z,64.23
2018-02-21T11:24:18.910Z,65.00
2018-02-21T11:26:48.353Z,60.67
2018-02-21T11:29:16.651Z,62.47
2018-02-21T11:31:45.031Z,55.50
2018-02-21T11:34:13.336Z,58.80
2018-02-21T11:36:41.624Z,64.30
2018-02-21T11:39:11.114Z,59.60
2018-02-21T11:41:39.431Z,59.13
2018-02-21T11:44:07.778Z,58.73
2018-02-21T11:46:38.922Z,51.00
2018-02-21T11:49:14.778Z,60.33
2018-02-21T11:51:43.652Z,57.30
2018-02-21T11:54:11.958Z,58.70
2018-02-21T11:56:41.120Z,51.20
2018-02-21T11:59:11.165Z,57.07
2018-02-21T12:01:39.499Z,58.33
2018-02-21T12:04:09.927Z,52.50
2018-02-21T12:06:45.838Z,48.73
2018-02-21T12:09:18.734Z,48.07
2018-02-21T12:11:48.724Z,51.97
2018-02-21T12:14:20.037Z,49.03
2018-02-21T12:16:48.418Z,50.53
2018-02-21T12:19:16.710Z,45.47
2018-02-21T12:21:45.535Z,41.57
2018-02-21T12:24:21.694Z,42.53
2018-02-21T12:26:50.427Z,39.57
2018-02-21T12:29:19.588Z,41.93
2018-02-21T12:31:58.984Z,46.00
2018-02-21T12:34:28.275Z,48.30
2018-02-21T12:36:59.401Z,46.80
2018-02-21T12:39:36.299Z,46.57
2018-02-21T12:42:05.108Z,41.87
2018-02-21T12:45:09.147Z,43.73
2018-02-21T12:47:37.543Z,44.97
2018-02-21T12:50:06.796Z,43.80
2018-02-21T12:52:35.440Z,42.37
2018-02-21T12:55:10.548Z,49.70
2018-02-21T12:57:43.832Z,45.70
2018-02-21T13:00:13.861Z,51.80
2018-02-21T13:02:42.840Z,47.50
2018-02-21T13:05:11.165Z,49.10
2018-02-21T13:07:39.566Z,44.30
2018-02-21T13:10:08.770Z,44.03
2018-02-21T13:12:43.161Z,47.43
2018-02-21T13:15:12.877Z,45.57
2018-02-21T13:17:47.189Z,48.63
2018-02-21T13:20:16.610Z,49.73
2018-02-21T13:22:45.678Z,47.90
2018-02-21T13:25:15.289Z,45.47
2018-02-21T13:27:43.874Z,48.30
2018-02-21T13:30:47.636Z,50.33
2018-02-21T13:33:16.447Z,66.40
2018-02-21T13:35:45.052Z,51.30
2018-02-21T13:38:14.821Z,79.00
2018-02-21T13:40:47.620Z,59.60
2018-02-21T13:43:22.459Z,62.90
2018-02-21T13:45:51.067Z,46.97
2018-02-21T13:48:19.874Z,47.03
2018-02-21T13:50:49.108Z,52.23
2018-02-21T13:53:17.391Z,48.30
2018-02-21T13:55:46.172Z,44.97
2018-02-21T13:58:17.816Z,48.97
2018-02-21T14:00:51.627Z,51.27
2018-02-21T14:03:23.769Z,51.33
2018-02-21T14:05:55.618Z,48.57
2018-02-21T14:08:25.352Z,48.80
2018-02-21T14:10:56.051Z,45.60
2018-02-21T14:13:26.344Z,52.47
2018-02-21T14:16:24.995Z,53.30
2018-02-21T14:18:53.612Z,51.63
2018-02-21T14:21:22.808Z,45.07
2018-02-21T14:23:51.107Z,47.70
2018-02-21T14:26:21.234Z,48.40
2018-02-21T14:28:51.660Z,49.03
2018-02-21T14:31:23.666Z,48.97
2018-02-21T14:33:54.159Z,51.23
2018-02-21T14:36:24.228Z,46.07
2018-02-21T14:38:52.799Z,49.70
2018-02-21T14:41:22.056Z,48.30
2018-02-21T14:43:51.832Z,46.67
2018-02-21T14:46:28.194Z,49.37
2018-02-21T14:48:56.894Z,48.20
2018-02-21T14:51:32.527Z,45.47
2018-02-21T14:54:03.715Z,51.40
2018-02-21T14:56:38.692Z,42.47
2018-02-21T14:59:09.253Z,46.33
2018-02-21T15:01:58.758Z,44.23
2018-02-21T15:04:28.178Z,44.57
2018-02-21T15:06:59.435Z,39.27
2018-02-21T15:09:31.141Z,41.33
2018-02-21T15:12:01.892Z,97.50
2018-02-21T15:14:31.866Z,73.70
2018-02-21T15:17:00.608Z,44.17
2018-02-21T15:19:30.198Z,44.03
2018-02-21T15:21:59.503Z,48.53
2018-02-21T15:24:32.380Z,48.53
2018-02-21T15:27:08.863Z,39.13
2018-02-21T15:29:42.309Z,38.37
2018-02-21T15:32:12.474Z,35.87
2018-02-21T15:34:42.245Z,32.03
2018-02-21T15:37:12.992Z,38.10
2018-02-21T15:39:41.813Z,37.27
2018-02-21T15:42:10.592Z,35.83
2018-02-21T15:44:39.699Z,41.73
2018-02-21T15:47:22.046Z,34.30
2018-02-21T15:49:50.797Z,38.03
2018-02-21T15:52:20.584Z,39.60
2018-02-21T15:54:48.927Z,37.10
2018-02-21T15:57:17.471Z,36.97
2018-02-21T15:59:49.023Z,35.03
2018-02-21T16:02:29.945Z,36.97
2018-02-21T16:04:58.756Z,38.53
2018-02-21T16:07:27.561Z,39.33
2018-02-21T16:09:58.796Z,38.30
2018-02-21T16:12:29.292Z,41.67
2018-02-21T16:15:04.565Z,43.63
2018-02-21T16:20:56.023Z,48.47
2018-02-21T16:23:24.710Z,43.50
2018-02-21T16:25:54.404Z,47.20
2018-02-21T16:28:30.544Z,47.30
2018-02-21T16:31:01.210Z,46.53
2018-02-21T16:33:33.327Z,44.30
2018-02-21T16:36:02.486Z,47.60
2018-02-21T16:38:31.200Z,43.20
2018-02-21T16:40:59.856Z,40.63
2018-02-21T16:43:29.233Z,43.30
2018-02-21T16:46:00.985Z,47.43
2018-02-21T16:48:53.118Z,43.17
2018-02-21T16:51:21.506Z,42.07
2018-02-21T16:53:56.318Z,43.57
2018-02-21T16:56:24.614Z,41.23
2018-02-21T16:58:53.808Z,43.07
2018-02-21T17:01:27.287Z,44.70
2018-02-21T17:04:18.060Z,44.30
2018-02-21T17:06:48.051Z,45.97
2018-02-21T17:09:17.727Z,46.83
2018-02-21T17:11:49.369Z,49.87
2018-02-21T17:14:22.068Z,47.60
2018-02-21T17:16:51.448Z,55.57
2018-02-21T17:19:42.504Z,51.47
2018-02-21T17:22:10.820Z,54.63
2018-02-21T17:24:39.611Z,52.33
2018-02-21T17:27:13.309Z,57.57
2018-02-21T17:29:48.633Z,51.70
2018-02-21T17:32:23.804Z,57.10
2018-02-21T17:35:13.935Z,52.27
2018-02-21T17:37:43.190Z,50.77
2018-02-21T17:40:11.694Z,52.80
2018-02-21T17:42:41.346Z,54.70
2018-02-21T17:45:14.620Z,53.37
2018-02-21T17:47:45.567Z,52.60
2018-02-21T17:50:39.518Z,49.70
2018-02-21T17:53:09.231Z,52.53
2018-02-21T17:55:38.116Z,52.60
2018-02-21T17:58:06.839Z,49.20
2018-02-21T18:00:38.852Z,51.03
2018-02-21T18:03:17.706Z,47.70
2018-02-21T18:05:48.448Z,52.93
2018-02-21T18:08:19.210Z,52.33
2018-02-21T18:10:47.619Z,45.30
2018-02-21T18:13:16.003Z,49.47
2018-02-21T18:15:44.752Z,48.43
2018-02-21T18:18:13.795Z,49.30
2018-02-21T18:21:04.592Z,47.10
2018-02-21T18:23:32.887Z,47.30
2018-02-21T18:26:02.079Z,47.23
2018-02-21T18:28:30.729Z,45.63
2018-02-21T18:30:59.049Z,45.33
2018-02-21T18:33:32.459Z,47.37
2018-02-21T18:39:25.363Z,38.97
2018-02-21T18:41:53.665Z,40.00
2018-02-21T18:44:23.120Z,36.40
2018-02-21T18:46:52.606Z,36.80
2018-02-21T18:49:21.361Z,34.67
2018-02-21T18:51:51.184Z,37.83
2018-02-21T18:54:19.907Z,38.10
2018-02-21T18:56:48.875Z,39.67
2018-02-21T18:59:18.618Z,38.17
2018-02-21T19:01:46.896Z,36.50
2018-02-21T19:04:17.000Z,40.73
2018-02-21T19:06:46.587Z,38.07
2018-02-21T19:09:14.901Z,38.93
2018-02-21T19:11:43.578Z,38.23
2018-02-21T19:14:12.510Z,40.30
2018-02-21T19:16:41.734Z,40.53
2018-02-21T19:19:12.803Z,41.10
2018-02-21T19:21:42.454Z,40.10
2018-02-21T19:24:10.963Z,39.50
2018-02-21T19:26:39.307Z,43.40
2018-02-21T19:29:08.142Z,40.63
2018-02-21T19:31:38.903Z,43.17
2018-02-21T19:34:07.982Z,43.10
2018-02-21T19:36:38.747Z,44.63
2018-02-21T19:39:07.577Z,42.07
2018-02-21T19:41:36.251Z,44.10
2018-02-21T19:44:05.069Z,42.43
2018-02-21T19:46:37.752Z,46.83
2018-02-21T19:49:06.942Z,61.30
2018-02-21T19:51:35.307Z,85.93
2018-02-21T19:54:03.616Z,49.67
2018-02-21T19:56:32.519Z,46.77
2018-02-21T19:59:00.839Z,47.73
2018-02-21T20:01:31.323Z,46.57
2018-02-21T20:04:03.355Z,45.97
2018-02-21T20:06:37.015Z,50.50
2018-02-21T20:09:07.060Z,43.57
2018-02-21T20:11:35.709Z,45.60
2018-02-21T20:14:04.424Z,48.07
2018-02-21T20:16:32.703Z,45.03
2018-02-21T20:19:02.337Z,44.60
2018-02-21T20:21:45.877Z,50.37
2018-02-21T20:24:14.190Z,44.73
2018-02-21T20:26:43.140Z,42.23
2018-02-21T20:29:19.317Z,40.23
2018-02-21T20:31:54.708Z,43.00
2018-02-21T20:34:23.066Z,47.57
2018-02-21T20:36:52.133Z,46.60
2018-02-21T20:39:20.436Z,42.83
2018-02-21T20:41:49.742Z,46.30
2018-02-21T20:44:19.695Z,40.80
2018-02-21T20:46:52.850Z,42.30
2018-02-21T20:49:29.140Z,50.17
2018-02-21T20:52:20.418Z,47.17
2018-02-21T20:54:49.688Z,45.47
2018-02-21T20:57:19.692Z,40.63
2018-02-21T20:59:49.134Z,41.33
2018-02-21T21:02:19.481Z,39.87
2018-02-21T21:04:49.404Z,42.23
2018-02-21T21:07:18.223Z,48.57
2018-02-21T21:09:46.941Z,45.20
2018-02-21T21:12:16.267Z,41.57
2018-02-21T21:14:44.773Z,45.23
2018-02-21T21:17:14.004Z,44.70
2018-02-21T21:19:44.320Z,42.07
2018-02-21T21:22:17.125Z,44.97
2018-02-21T21:24:46.482Z,45.50
2018-02-21T21:27:15.737Z,49.73
2018-02-21T21:29:44.191Z,48.83
2018-02-21T21:32:17.044Z,45.23
2018-02-21T21:34:51.211Z,47.10
2018-02-21T21:37:25.576Z,46.10
2018-02-21T21:39:57.784Z,44.07
2018-02-21T21:42:28.939Z,45.00
2018-02-21T21:44:58.910Z,42.57
2018-02-21T21:47:27.867Z,41.37
2018-02-21T21:49:56.177Z,39.43
2018-02-21T21:52:24.456Z,41.87
2018-02-21T21:54:52.783Z,37.30
2018-02-21T21:57:22.990Z,37.40
2018-02-21T21:59:51.333Z,33.70
2018-02-21T22:02:19.662Z,37.00
2018-02-21T22:04:48.940Z,33.07
2018-02-21T22:07:18.943Z,31.23
2018-02-21T22:09:48.881Z,35.90
2018-02-21T22:12:17.225Z,30.20
2018-02-21T22:14:46.682Z,30.20
2018-02-21T22:17:21.651Z,30.83
2018-02-21T22:19:56.994Z,29.40
2018-02-21T22:22:25.317Z,27.50
2018-02-21T22:24:56.811Z,27.27
2018-02-21T22:27:26.542Z,29.60
2018-02-21T22:29:57.245Z,27.63
2018-02-21T22:32:26.306Z,25.80
2018-02-21T22:34:55.791Z,29.60
2018-02-21T22:37:24.568Z,27.57
2018-02-21T22:39:57.362Z,28.83
2018-02-21T22:42:31.726Z,26.97
2018-02-21T22:45:04.492Z,25.77
2018-02-21T22:47:35.691Z,25.73
2018-02-21T22:50:06.606Z,24.47
2018-02-21T22:52:36.650Z,27.97
2018-02-21T22:55:06.020Z,23.97
2018-02-21T22:57:34.309Z,23.50
2018-02-21T23:00:08.188Z,25.63
2018-02-21T23:02:43.541Z,22.87
2018-02-21T23:05:12.601Z,22.50
2018-02-21T23:07:41.656Z,23.30
2018-02-21T23:10:11.350Z,16.57
2018-02-21T23:12:40.652Z,19.30
2018-02-21T23:15:14.761Z,19.63
2018-02-21T23:17:48.172Z,21.73
2018-02-21T23:20:16.910Z,18.80
2018-02-21T23:22:46.192Z,20.53
2018-02-21T23:25:17.010Z,21.77
2018-02-21T23:27:45.318Z,25.47
2018-02-21T23:30:15.833Z,22.37
2018-02-21T23:32:46.221Z,22.90
2018-02-21T23:35:14.567Z,20.23
2018-02-21T23:37:42.840Z,24.90
2018-02-21T23:40:11.689Z,26.90
2018-02-21T23:42:43.684Z,26.30
2018-02-21T23:45:14.896Z,24.57
2018-02-21T23:47:43.446Z,24.33
2018-02-21T23:50:11.746Z,32.77
2018-02-21T23:52:41.474Z,26.10
2018-02-21T23:55:24.373Z,24.87
2018-02-21T23:57:53.539Z,28.70
